Terminal Aerodrome Forecast
Issued by NWS Jackson, MS

Home | Current Version | Previous Version | Text Only | Print | Product List | Glossary On
Versions: 1 2 3 4 5 6 7 8 9 10 11 12 13
000
FTUS44 KJAN 280530
TAFMEI
TAF
KMEI 280530Z 2806/2906 00000KT P6SM FEW250
     FM281100 00000KT 6SM BR FEW250
     FM281300 08007KT P6SM FEW050 SCT250
     FM290000 07003KT P6SM FEW050 FEW250=

USA.gov is the U.S. government's official web portal to all federal, state and local government web resources and services.